createdAt,value
2023-06-06T00:01:57.063Z,97787.34
2023-06-06T00:04:23.757Z,97793.47
2023-06-06T00:06:54.088Z,97800.53
2023-06-06T00:09:20.895Z,97793.00
2023-06-06T00:11:49.838Z,97788.53
2023-06-06T00:14:20.166Z,97807.47
2023-06-06T00:16:50.822Z,97786.13
2023-06-06T00:19:18.984Z,97797.69
2023-06-06T00:21:45.884Z,97789.56
2023-06-06T00:24:12.543Z,97800.38
2023-06-06T00:26:39.691Z,97803.34
2023-06-06T00:29:06.607Z,97803.78
2023-06-06T00:31:33.259Z,97790.81
2023-06-06T00:33:59.829Z,97814.50
2023-06-06T00:36:26.384Z,97810.19
2023-06-06T00:38:52.942Z,97811.88
2023-06-06T00:41:19.511Z,97810.34
2023-06-06T00:43:46.257Z,97819.91
2023-06-06T00:46:14.669Z,97816.00
2023-06-06T00:48:41.321Z,97806.53
2023-06-06T00:51:09.614Z,97811.56
2023-06-06T00:53:37.547Z,97788.09
2023-06-06T00:56:06.188Z,97800.91
2023-06-06T00:58:34.221Z,97795.38
2023-06-06T01:01:02.811Z,97807.22
2023-06-06T01:03:31.210Z,97802.06
2023-06-06T01:05:58.020Z,97786.19
2023-06-06T01:08:24.671Z,97796.91
2023-06-06T01:10:52.489Z,97804.56
2023-06-06T01:13:34.554Z,97801.41
2023-06-06T01:16:08.909Z,97806.38
2023-06-06T01:18:36.613Z,97790.94
2023-06-06T01:21:03.341Z,97803.56
2023-06-06T01:23:31.519Z,97812.06
2023-06-06T01:25:58.292Z,97804.16
2023-06-06T01:28:26.318Z,97801.34
2023-06-06T01:30:52.999Z,97802.13
2023-06-06T01:33:33.939Z,97810.56
2023-06-06T01:36:34.398Z,97808.22
2023-06-06T01:39:10.023Z,97815.69
2023-06-06T01:41:38.659Z,97805.50
2023-06-06T01:44:07.245Z,97817.03
2023-06-06T01:46:36.036Z,97810.88
2023-06-06T01:49:03.347Z,97807.59
2023-06-06T01:51:30.290Z,97816.50
2023-06-06T01:53:58.726Z,97823.13
2023-06-06T01:56:27.202Z,97812.66
2023-06-06T01:58:53.814Z,97823.81
2023-06-06T02:01:22.024Z,97815.19
2023-06-06T02:03:48.984Z,97816.31
2023-06-06T02:06:15.832Z,97800.09
2023-06-06T02:08:42.563Z,97821.22
2023-06-06T02:11:09.264Z,97806.22
2023-06-06T02:13:36.139Z,97808.66
2023-06-06T02:16:02.800Z,97820.44
2023-06-06T02:18:29.375Z,97818.03
2023-06-06T02:20:55.898Z,97817.25
2023-06-06T02:23:23.047Z,97824.63
2023-06-06T02:25:49.975Z,97817.44
2023-06-06T02:28:16.794Z,97805.75
2023-06-06T02:30:44.009Z,97816.81
2023-06-06T02:33:10.637Z,97818.44
2023-06-06T02:35:38.197Z,97814.50
2023-06-06T02:38:04.758Z,97813.53
2023-06-06T02:40:31.277Z,97807.00
2023-06-06T02:42:57.782Z,97810.75
2023-06-06T02:45:24.372Z,97810.13
2023-06-06T02:47:50.980Z,97829.16
2023-06-06T02:50:17.567Z,97819.28
2023-06-06T02:52:44.065Z,97816.81
2023-06-06T02:55:10.760Z,97818.84
2023-06-06T02:57:37.569Z,97795.59
2023-06-06T03:00:09.053Z,97822.72
2023-06-06T03:02:36.388Z,97813.47
2023-06-06T03:05:04.635Z,97818.41
2023-06-06T03:07:31.829Z,97794.78
2023-06-06T03:09:58.517Z,97820.41
2023-06-06T03:12:25.098Z,97815.50
2023-06-06T03:14:57.724Z,97824.19
2023-06-06T03:17:24.921Z,97809.19
2023-06-06T03:19:52.224Z,97807.78
2023-06-06T03:22:19.164Z,97814.94
2023-06-06T03:24:51.228Z,97817.84
2023-06-06T03:27:18.363Z,97814.78
2023-06-06T03:29:44.941Z,97818.25
2023-06-06T03:32:11.558Z,97815.53
2023-06-06T03:34:40.465Z,97822.72
2023-06-06T03:37:07.188Z,97830.72
2023-06-06T03:39:34.916Z,97817.56
2023-06-06T03:42:01.841Z,97821.06
2023-06-06T03:44:28.432Z,97824.81
2023-06-06T03:46:54.911Z,97825.63
2023-06-06T03:49:21.479Z,97825.47
2023-06-06T03:51:48.211Z,97836.75
2023-06-06T03:54:14.778Z,97828.31
2023-06-06T03:56:43.771Z,97818.66
2023-06-06T03:59:14.563Z,97836.91
2023-06-06T04:01:42.178Z,97841.03
2023-06-06T04:04:09.590Z,97834.03
2023-06-06T04:06:37.052Z,97839.78
2023-06-06T04:09:04.263Z,97821.47
2023-06-06T04:11:30.976Z,97836.06
2023-06-06T04:13:57.649Z,97821.47
2023-06-06T04:16:24.303Z,97838.53
2023-06-06T04:18:53.681Z,97833.44
2023-06-06T04:21:20.728Z,97843.53
2023-06-06T04:23:47.820Z,97844.34
2023-06-06T04:26:32.711Z,97824.41
2023-06-06T04:29:01.193Z,97847.19
2023-06-06T04:31:30.594Z,97827.28
2023-06-06T04:33:58.572Z,97847.84
2023-06-06T04:36:25.267Z,97851.53
2023-06-06T04:38:52.793Z,97840.00
2023-06-06T04:43:53.127Z,97842.06
2023-06-06T04:46:23.075Z,97854.19
2023-06-06T04:48:57.388Z,97852.16
2023-06-06T04:51:34.730Z,97851.91
2023-06-06T04:54:03.938Z,97851.91
2023-06-06T04:56:31.091Z,97861.81
2023-06-06T04:58:58.418Z,97859.13
2023-06-06T05:01:25.549Z,97853.78
2023-06-06T05:03:52.299Z,97857.50
2023-06-06T05:06:19.025Z,97864.69
2023-06-06T05:08:45.721Z,97859.97
2023-06-06T05:11:13.050Z,97864.06
2023-06-06T05:13:40.343Z,97867.16
2023-06-06T05:16:09.179Z,97874.31
2023-06-06T05:18:37.001Z,97867.50
2023-06-06T05:21:05.198Z,97871.81
2023-06-06T05:23:33.339Z,97867.28
2023-06-06T05:26:00.193Z,97867.28
2023-06-06T05:28:29.865Z,97858.81
2023-06-06T05:30:59.301Z,97868.66
2023-06-06T05:33:31.833Z,97853.22
2023-06-06T05:35:58.583Z,97865.56
2023-06-06T05:38:26.855Z,97862.84
2023-06-06T05:40:54.210Z,97856.19
2023-06-06T05:43:21.248Z,97865.03
2023-06-06T05:45:47.870Z,97853.28
2023-06-06T05:48:14.777Z,97863.38
2023-06-06T05:50:41.642Z,97866.31
2023-06-06T05:53:08.404Z,97869.59
2023-06-06T05:55:36.401Z,97859.97
2023-06-06T05:58:04.895Z,97871.69
2023-06-06T06:00:33.584Z,97875.78
2023-06-06T06:03:05.337Z,97873.50
2023-06-06T06:05:32.484Z,97866.09
2023-06-06T06:08:00.913Z,97868.72
2023-06-06T06:10:31.298Z,97866.44
2023-06-06T06:12:59.182Z,97869.56
2023-06-06T06:15:26.319Z,97867.25
2023-06-06T06:17:53.274Z,97851.97
2023-06-06T06:20:23.592Z,97864.44
2023-06-06T06:22:54.736Z,97858.38
2023-06-06T06:25:21.914Z,97851.09
2023-06-06T06:27:49.970Z,97868.56
2023-06-06T06:30:17.565Z,97865.03
2023-06-06T06:32:45.592Z,97851.13
2023-06-06T06:35:12.514Z,97867.22
2023-06-06T06:37:40.833Z,97861.81
2023-06-06T06:40:11.318Z,97868.16
2023-06-06T06:42:43.269Z,97857.88
2023-06-06T06:45:13.426Z,97857.13
2023-06-06T06:47:41.702Z,97850.53
2023-06-06T06:50:09.300Z,97864.72
2023-06-06T06:52:36.708Z,97859.28
2023-06-06T06:55:06.202Z,97855.84
2023-06-06T06:57:35.080Z,97862.88
2023-06-06T07:00:12.745Z,97870.97
2023-06-06T07:02:59.189Z,97858.22
2023-06-06T07:05:26.086Z,97859.47
2023-06-06T07:07:55.460Z,97886.50
2023-06-06T07:10:24.628Z,97878.31
2023-06-06T07:12:53.223Z,97874.84
2023-06-06T07:15:21.817Z,97861.47
2023-06-06T07:17:51.569Z,97862.88
2023-06-06T07:20:21.282Z,97864.06
2023-06-06T07:22:57.426Z,97856.03
2023-06-06T07:25:24.570Z,97856.72
2023-06-06T07:27:51.205Z,97849.00
2023-06-06T07:30:17.889Z,97856.13
2023-06-06T07:32:46.524Z,97859.16
2023-06-06T07:35:15.022Z,97860.59
2023-06-06T07:37:41.884Z,97852.91
2023-06-06T07:40:10.508Z,97853.09
2023-06-06T07:42:37.236Z,97839.97
2023-06-06T07:45:07.322Z,97852.50
2023-06-06T07:47:33.946Z,97858.13
2023-06-06T07:50:00.909Z,97851.66
2023-06-06T07:52:27.588Z,97842.38
2023-06-06T07:54:54.465Z,97860.00
2023-06-06T07:57:21.211Z,97853.16
2023-06-06T07:59:48.034Z,97846.63
2023-06-06T08:02:15.877Z,97845.63
2023-06-06T08:04:47.113Z,97843.47
2023-06-06T08:07:31.013Z,97845.66
2023-06-06T08:09:58.643Z,97839.72
2023-06-06T08:12:25.197Z,97848.97
2023-06-06T08:14:51.665Z,97847.22
2023-06-06T08:17:18.198Z,97834.00
2023-06-06T08:19:44.768Z,97836.06
2023-06-06T08:22:11.854Z,97816.31
2023-06-06T08:24:38.815Z,97830.84
2023-06-06T08:27:06.715Z,97837.53
2023-06-06T08:29:33.259Z,97832.47
2023-06-06T08:32:01.919Z,97830.09
2023-06-06T08:34:29.356Z,97833.97
2023-06-06T08:36:56.933Z,97828.81
2023-06-06T08:39:23.736Z,97829.06
2023-06-06T08:41:54.977Z,97820.88
2023-06-06T08:44:23.940Z,97823.22
2023-06-06T08:46:55.264Z,97830.44
2023-06-06T08:49:22.812Z,97826.00
2023-06-06T08:51:53.760Z,97828.13
2023-06-06T08:54:21.383Z,97824.97
2023-06-06T08:56:48.677Z,97828.13
2023-06-06T08:59:15.952Z,97818.81
2023-06-06T09:01:43.286Z,97821.78
2023-06-06T09:04:11.094Z,97816.72
2023-06-06T09:06:45.349Z,97816.22
2023-06-06T09:09:14.115Z,97808.25
2023-06-06T09:11:41.010Z,97800.09
2023-06-06T09:14:08.481Z,97815.16
2023-06-06T09:16:35.381Z,97812.72
2023-06-06T09:19:04.067Z,97806.88
2023-06-06T09:21:34.548Z,97815.69
2023-06-06T09:24:02.332Z,97807.53
2023-06-06T09:26:29.720Z,97814.59
2023-06-06T09:28:57.004Z,97804.75
2023-06-06T09:31:35.490Z,97811.16
2023-06-06T09:34:03.068Z,97816.31
2023-06-06T09:36:31.521Z,97811.75
2023-06-06T09:39:11.748Z,97810.19
2023-06-06T09:41:43.540Z,97802.31
2023-06-06T09:44:26.581Z,97812.34
2023-06-06T09:47:01.300Z,97794.81
2023-06-06T09:49:37.685Z,97803.78
2023-06-06T09:52:06.121Z,97803.88
2023-06-06T09:54:33.388Z,97804.31
2023-06-06T09:57:00.953Z,97796.34
2023-06-06T09:59:29.233Z,97803.34
2023-06-06T10:02:03.436Z,97796.69
2023-06-06T10:04:31.857Z,97798.50
2023-06-06T10:07:04.210Z,97781.63
2023-06-06T10:09:31.569Z,97796.53
2023-06-06T10:11:58.857Z,97790.34
2023-06-06T10:14:27.862Z,97797.16
2023-06-06T10:16:54.812Z,97787.41
2023-06-06T10:19:23.213Z,97791.09
2023-06-06T10:21:52.058Z,97774.59
2023-06-06T10:24:18.966Z,97783.09
2023-06-06T10:26:45.575Z,97776.69
2023-06-06T10:29:23.959Z,97774.06
2023-06-06T10:32:06.589Z,97778.03
2023-06-06T10:34:39.155Z,97783.25
2023-06-06T10:37:16.336Z,97784.06
2023-06-06T10:39:47.655Z,97775.16
2023-06-06T10:42:15.940Z,97772.72
2023-06-06T10:44:56.972Z,97770.47
2023-06-06T10:47:28.805Z,97775.03
2023-06-06T10:50:14.154Z,97765.56
2023-06-06T10:52:55.050Z,97763.75
2023-06-06T10:55:21.571Z,97772.97
2023-06-06T10:57:55.286Z,97762.72
2023-06-06T11:00:24.787Z,97759.34
2023-06-06T11:02:53.938Z,97752.78
2023-06-06T11:05:22.719Z,97754.56
2023-06-06T11:07:53.198Z,97756.75
2023-06-06T11:10:23.417Z,97754.38
2023-06-06T11:12:53.291Z,97739.06
2023-06-06T11:15:32.511Z,97749.53
2023-06-06T11:18:05.511Z,97735.25
2023-06-06T11:20:41.910Z,97741.41
2023-06-06T11:23:12.031Z,97732.81
2023-06-06T11:25:38.854Z,97727.66
2023-06-06T11:28:09.958Z,97736.50
2023-06-06T11:30:38.226Z,97737.84
2023-06-06T11:33:11.745Z,97735.00
2023-06-06T11:35:41.577Z,97740.34
2023-06-06T11:38:08.530Z,97731.75
2023-06-06T11:40:35.235Z,97730.34
2023-06-06T11:43:03.469Z,97737.94
2023-06-06T11:45:32.548Z,97726.78
2023-06-06T11:48:14.491Z,97718.75
2023-06-06T11:50:45.187Z,97725.44
2023-06-06T11:53:12.046Z,97733.63
2023-06-06T11:55:39.613Z,97723.81
2023-06-06T11:58:06.537Z,97729.50
2023-06-06T12:00:34.421Z,97740.03
2023-06-06T12:03:02.083Z,97733.63
2023-06-06T12:05:30.440Z,97725.63
2023-06-06T12:08:01.321Z,97725.97
2023-06-06T12:10:31.629Z,97715.63
2023-06-06T12:12:59.641Z,97728.72
2023-06-06T12:15:45.451Z,97720.78
2023-06-06T12:18:14.683Z,97710.53
2023-06-06T12:20:43.562Z,97715.06
2023-06-06T12:23:10.607Z,97717.06
2023-06-06T12:25:37.153Z,97711.94
2023-06-06T12:28:11.515Z,97717.88
2023-06-06T12:30:40.269Z,97706.41
2023-06-06T12:33:09.921Z,97708.94
2023-06-06T12:35:36.986Z,97714.56
2023-06-06T12:38:03.778Z,97707.69
2023-06-06T12:40:37.810Z,97708.28
2023-06-06T12:43:06.279Z,97709.59
2023-06-06T12:45:37.520Z,97699.97
2023-06-06T12:48:04.870Z,97694.44
2023-06-06T12:50:32.038Z,97699.72
2023-06-06T12:52:59.362Z,97702.22
2023-06-06T12:55:25.966Z,97705.94
2023-06-06T12:57:52.528Z,97697.56
2023-06-06T13:00:20.853Z,97700.78
2023-06-06T13:02:48.960Z,97703.69
2023-06-06T13:05:16.188Z,97694.09
2023-06-06T13:07:42.976Z,97684.75
2023-06-06T13:10:12.554Z,97680.72
2023-06-06T13:12:41.495Z,97688.69
2023-06-06T13:15:13.104Z,97682.81
2023-06-06T13:17:40.408Z,97688.19
2023-06-06T13:20:10.491Z,97668.88
2023-06-06T13:22:38.320Z,97678.56
2023-06-06T13:25:05.376Z,97688.09
2023-06-06T13:27:32.222Z,97686.78
2023-06-06T13:29:58.818Z,97682.38
2023-06-06T13:32:25.601Z,97688.00
2023-06-06T13:34:52.309Z,97685.97
2023-06-06T13:37:18.896Z,97683.00
2023-06-06T13:39:45.644Z,97678.44
2023-06-06T13:42:15.031Z,97681.84
2023-06-06T13:44:42.085Z,97686.19
2023-06-06T13:47:09.972Z,97680.69
2023-06-06T13:49:36.952Z,97669.72
2023-06-06T13:52:03.798Z,97679.22
2023-06-06T13:54:30.433Z,97673.88
2023-06-06T13:57:01.852Z,97667.91
2023-06-06T13:59:30.009Z,97673.31
2023-06-06T14:01:57.143Z,97661.31
2023-06-06T14:04:23.966Z,97665.94
2023-06-06T14:06:52.215Z,97665.13
2023-06-06T14:09:23.355Z,97670.91
2023-06-06T14:11:54.006Z,97681.56
2023-06-06T14:14:20.643Z,97679.81
2023-06-06T14:16:47.447Z,97681.41
2023-06-06T14:19:15.795Z,97687.47
2023-06-06T14:21:43.413Z,97679.09
2023-06-06T14:24:11.497Z,97669.59
2023-06-06T14:26:39.486Z,97672.03
2023-06-06T14:29:06.538Z,97670.06
2023-06-06T14:31:33.571Z,97659.25
2023-06-06T14:34:00.831Z,97677.34
2023-06-06T14:36:27.712Z,97659.59
2023-06-06T14:38:54.544Z,97670.53
2023-06-06T14:41:27.020Z,97653.84
2023-06-06T14:43:58.480Z,97663.19
2023-06-06T14:46:29.424Z,97653.78
2023-06-06T14:48:56.350Z,97658.91
2023-06-06T14:51:23.211Z,97655.59
2023-06-06T14:53:49.991Z,97659.78
2023-06-06T14:56:18.503Z,97645.97
2023-06-06T14:58:45.991Z,97656.34
2023-06-06T15:01:13.023Z,97657.19
2023-06-06T15:03:39.910Z,97662.66
2023-06-06T15:06:06.795Z,97661.75
2023-06-06T15:08:33.817Z,97667.00
2023-06-06T15:11:01.211Z,97664.72
2023-06-06T15:13:30.948Z,97663.47
2023-06-06T15:15:58.115Z,97648.22
2023-06-06T15:18:24.967Z,97655.75
2023-06-06T15:20:51.723Z,97657.94
2023-06-06T15:23:18.503Z,97644.44
2023-06-06T15:25:47.936Z,97661.28
2023-06-06T15:28:18.281Z,97651.84
2023-06-06T15:30:46.069Z,97670.53
2023-06-06T15:33:14.287Z,97641.72
2023-06-06T15:35:42.557Z,97655.03
2023-06-06T15:38:09.514Z,97659.72
2023-06-06T15:40:38.023Z,97657.56
2023-06-06T15:43:15.591Z,97633.69
2023-06-06T15:45:45.907Z,97636.69
2023-06-06T15:48:13.212Z,97647.75
2023-06-06T15:50:39.836Z,97640.03
2023-06-06T15:53:06.430Z,97649.75
2023-06-06T15:55:33.114Z,97654.13
2023-06-06T15:57:59.797Z,97650.09
2023-06-06T16:00:27.248Z,97657.53
2023-06-06T16:02:54.253Z,97658.38
2023-06-06T16:05:21.628Z,97658.59
2023-06-06T16:07:48.187Z,97653.09
2023-06-06T16:10:14.767Z,97641.25
2023-06-06T16:12:41.335Z,97645.31
2023-06-06T16:15:09.543Z,97647.53
2023-06-06T16:17:36.176Z,97637.97
2023-06-06T16:20:04.126Z,97643.00
2023-06-06T16:22:30.738Z,97632.75
2023-06-06T16:24:57.426Z,97630.47
2023-06-06T16:27:24.325Z,97641.22
2023-06-06T16:29:51.139Z,97642.38
2023-06-06T16:32:17.842Z,97620.91
2023-06-06T16:34:44.606Z,97628.72
2023-06-06T16:37:11.230Z,97637.06
2023-06-06T16:39:38.124Z,97634.06
2023-06-06T16:42:04.953Z,97632.78
2023-06-06T16:44:32.176Z,97628.25
2023-06-06T16:46:58.756Z,97633.25
2023-06-06T16:49:25.554Z,97636.47
2023-06-06T16:51:53.062Z,97629.03
2023-06-06T16:54:21.563Z,97638.63
2023-06-06T16:56:48.258Z,97624.63
2023-06-06T16:59:15.471Z,97638.31
2023-06-06T17:01:42.360Z,97624.16
2023-06-06T17:04:09.234Z,97636.78
2023-06-06T17:06:35.933Z,97636.38
2023-06-06T17:09:02.510Z,97634.34
2023-06-06T17:11:29.324Z,97615.34
2023-06-06T17:13:56.153Z,97630.53
2023-06-06T17:16:22.775Z,97630.13
2023-06-06T17:18:49.975Z,97626.06
2023-06-06T17:21:16.805Z,97633.91
2023-06-06T17:23:43.406Z,97634.97
2023-06-06T17:26:10.004Z,97627.75
2023-06-06T17:28:36.621Z,97636.50
2023-06-06T17:31:03.910Z,97645.56
2023-06-06T17:33:30.571Z,97640.28
2023-06-06T17:35:57.155Z,97648.25
2023-06-06T17:38:23.761Z,97638.34
2023-06-06T17:40:50.789Z,97640.75
2023-06-06T17:43:18.087Z,97651.84
2023-06-06T17:45:44.749Z,97646.81
2023-06-06T17:48:13.528Z,97642.00
2023-06-06T17:50:41.841Z,97640.41
2023-06-06T17:53:08.682Z,97657.50
2023-06-06T17:55:36.448Z,97640.75
2023-06-06T17:58:03.071Z,97655.19
2023-06-06T18:00:29.600Z,97663.44
2023-06-06T18:02:56.344Z,97670.22
2023-06-06T18:07:57.996Z,97668.56
2023-06-06T18:10:24.808Z,97679.44
2023-06-06T18:12:51.411Z,97665.16
2023-06-06T18:15:18.360Z,97668.47
2023-06-06T18:17:48.342Z,97681.25
2023-06-06T18:20:15.211Z,97685.09
2023-06-06T18:22:42.218Z,97690.56
2023-06-06T18:25:11.377Z,97684.31
2023-06-06T18:27:38.483Z,97694.66
2023-06-06T18:30:08.046Z,97695.50
2023-06-06T18:32:35.065Z,97683.66
2023-06-06T18:35:02.351Z,97684.50
2023-06-06T18:37:29.129Z,97698.91
2023-06-06T18:39:55.831Z,97691.06
2023-06-06T18:42:23.152Z,97690.03
2023-06-06T18:44:50.028Z,97690.59
2023-06-06T18:47:17.016Z,97664.56
2023-06-06T18:49:44.603Z,97660.50
2023-06-06T18:52:11.634Z,97697.94
2023-06-06T18:54:38.360Z,97680.09
2023-06-06T18:57:08.820Z,97686.06
2023-06-06T18:59:39.151Z,97686.34
2023-06-06T19:02:07.362Z,97698.56
2023-06-06T19:04:34.454Z,97695.53
2023-06-06T19:10:09.329Z,97687.66
2023-06-06T19:12:47.722Z,97684.97
2023-06-06T19:15:16.783Z,97703.13
2023-06-06T19:17:43.814Z,97684.16
2023-06-06T19:20:12.236Z,97677.63
2023-06-06T19:22:39.226Z,97701.75
2023-06-06T19:25:08.363Z,97692.19
2023-06-06T19:27:34.974Z,97708.44
2023-06-06T19:30:02.723Z,97715.69
2023-06-06T19:32:55.717Z,97697.06
2023-06-06T19:35:22.766Z,97711.91
2023-06-06T19:37:49.399Z,97708.88
2023-06-06T19:40:22.622Z,97714.75
2023-06-06T19:42:50.748Z,97727.44
2023-06-06T19:45:18.750Z,97724.38
2023-06-06T19:47:49.894Z,97726.41
2023-06-06T19:50:16.929Z,97739.00
2023-06-06T20:00:26.343Z,97753.34
2023-06-06T20:10:51.380Z,97754.03
2023-06-06T20:17:15.080Z,97767.84
2023-06-06T20:19:46.433Z,97769.56
2023-06-06T20:22:13.296Z,97772.66
2023-06-06T20:24:42.865Z,97775.44
2023-06-06T20:27:44.868Z,97773.22
2023-06-06T20:34:51.549Z,97776.66
2023-06-06T20:37:18.329Z,97777.72
2023-06-06T20:40:05.104Z,97779.34
2023-06-06T20:42:44.919Z,97764.88
2023-06-06T20:45:11.908Z,97760.53
2023-06-06T20:47:41.035Z,97765.03
2023-06-06T20:50:10.769Z,97762.03
2023-06-06T20:52:44.482Z,97772.81
2023-06-06T20:55:15.358Z,97761.78
2023-06-06T20:57:42.325Z,97769.78
2023-06-06T21:00:11.192Z,97773.59
2023-06-06T21:02:38.268Z,97776.38
2023-06-06T21:05:07.250Z,97773.75
2023-06-06T21:07:33.929Z,97774.97
2023-06-06T21:10:01.311Z,97764.59
2023-06-06T21:12:28.512Z,97778.91
2023-06-06T21:14:55.100Z,97776.56
2023-06-06T21:17:22.734Z,97767.69
2023-06-06T21:19:50.098Z,97771.56
2023-06-06T21:22:19.690Z,97778.41
2023-06-06T21:24:50.376Z,97775.28
2023-06-06T21:27:17.578Z,97783.53
2023-06-06T21:29:44.390Z,97768.38
2023-06-06T21:32:14.063Z,97772.22
2023-06-06T21:34:40.854Z,97750.16
2023-06-06T21:37:07.731Z,97764.81
2023-06-06T21:39:34.427Z,97775.47
2023-06-06T21:42:03.142Z,97769.16
2023-06-06T21:44:30.086Z,97774.06
2023-06-06T21:46:57.051Z,97780.59
2023-06-06T21:49:24.245Z,97769.06
2023-06-06T21:51:50.868Z,97781.00
2023-06-06T21:54:17.461Z,97784.50
2023-06-06T21:56:44.132Z,97778.56
2023-06-06T21:59:10.872Z,97795.88
2023-06-06T22:01:37.396Z,97777.84
2023-06-06T22:04:04.346Z,97784.50
2023-06-06T22:06:31.322Z,97794.44
2023-06-06T22:08:57.817Z,97778.66
2023-06-06T22:11:24.693Z,97773.41
2023-06-06T22:13:51.430Z,97773.25
2023-06-06T22:16:18.217Z,97780.16
2023-06-06T22:18:44.867Z,97786.38
2023-06-06T22:21:29.748Z,97795.25
2023-06-06T22:23:56.490Z,97795.28
2023-06-06T22:26:24.087Z,97792.56
2023-06-06T22:28:51.286Z,97785.22
2023-06-06T22:31:18.361Z,97781.09
2023-06-06T22:33:44.966Z,97785.28
2023-06-06T22:36:11.463Z,97794.69
2023-06-06T22:38:38.074Z,97791.81
2023-06-06T22:41:04.850Z,97785.22
2023-06-06T22:43:31.405Z,97790.78
2023-06-06T22:45:58.016Z,97784.13
2023-06-06T22:48:24.656Z,97791.75
2023-06-06T22:50:51.355Z,97789.22
2023-06-06T22:53:18.436Z,97794.41
2023-06-06T22:55:45.386Z,97792.81
2023-06-06T22:58:13.506Z,97781.78
2023-06-06T23:00:40.298Z,97799.72
2023-06-06T23:03:06.990Z,97794.34
2023-06-06T23:05:33.702Z,97805.03
2023-06-06T23:08:00.586Z,97812.50
2023-06-06T23:10:27.798Z,97789.94
2023-06-06T23:12:54.477Z,97797.25
2023-06-06T23:15:22.171Z,97800.66
2023-06-06T23:17:49.113Z,97788.16
2023-06-06T23:20:15.915Z,97792.78
2023-06-06T23:22:43.722Z,97802.84
2023-06-06T23:25:11.583Z,97790.00
2023-06-06T23:27:38.879Z,97790.38
2023-06-06T23:30:07.069Z,97807.03
2023-06-06T23:32:34.177Z,97803.50
2023-06-06T23:35:00.882Z,97783.81
2023-06-06T23:37:27.529Z,97782.72
2023-06-06T23:39:55.038Z,97787.31
2023-06-06T23:42:21.833Z,97803.78
2023-06-06T23:44:48.724Z,97783.06
2023-06-06T23:47:15.326Z,97799.84
2023-06-06T23:49:41.881Z,97780.41
2023-06-06T23:52:08.487Z,97796.88
2023-06-06T23:54:35.009Z,97771.13
2023-06-06T23:57:01.574Z,97785.13
2023-06-06T23:59:28.095Z,97803.81
